sensor_id;sensor_type;location;lat;lon;timestamp;pressure;altitude;pressure_sealevel;temperature
22322;BMP180;11328;53.928;18.522;2023-01-31T00:01:50;98804.00;;;4.50
22322;BMP180;11328;53.928;18.522;2023-01-31T00:04:18;98798.00;;;4.40
22322;BMP180;11328;53.928;18.522;2023-01-31T00:06:45;98799.00;;;4.50
22322;BMP180;11328;53.928;18.522;2023-01-31T00:09:17;98811.00;;;4.40
22322;BMP180;11328;53.928;18.522;2023-01-31T00:11:45;98803.00;;;4.50
22322;BMP180;11328;53.928;18.522;2023-01-31T00:14:18;98803.00;;;4.50
22322;BMP180;11328;53.928;18.522;2023-01-31T00:16:46;98796.00;;;4.40
22322;BMP180;11328;53.928;18.522;2023-01-31T00:19:14;98814.00;;;4.50
22322;BMP180;11328;53.928;18.522;2023-01-31T00:21:42;98810.00;;;4.40
22322;BMP180;11328;53.928;18.522;2023-01-31T00:24:14;98818.00;;;4.40
22322;BMP180;11328;53.928;18.522;2023-01-31T00:26:42;98826.00;;;4.50
22322;BMP180;11328;53.928;18.522;2023-01-31T00:29:09;98836.00;;;4.50
22322;BMP180;11328;53.928;18.522;2023-01-31T00:31:36;98821.00;;;4.40
22322;BMP180;11328;53.928;18.522;2023-01-31T00:34:05;98838.00;;;4.40
22322;BMP180;11328;53.928;18.522;2023-01-31T00:36:34;98839.00;;;4.50
22322;BMP180;11328;53.928;18.522;2023-01-31T00:39:05;98838.00;;;4.30
22322;BMP180;11328;53.928;18.522;2023-01-31T00:41:35;98819.00;;;4.30
22322;BMP180;11328;53.928;18.522;2023-01-31T00:44:05;98841.00;;;4.20
22322;BMP180;11328;53.928;18.522;2023-01-31T00:46:33;98851.00;;;4.20
22322;BMP180;11328;53.928;18.522;2023-01-31T00:49:02;98838.00;;;4.20
22322;BMP180;11328;53.928;18.522;2023-01-31T00:51:30;98842.00;;;4.20
22322;BMP180;11328;53.928;18.522;2023-01-31T00:53:58;98847.00;;;4.20
22322;BMP180;11328;53.928;18.522;2023-01-31T00:56:25;98867.00;;;4.10
22322;BMP180;11328;53.928;18.522;2023-01-31T00:58:52;98880.00;;;4.10
22322;BMP180;11328;53.928;18.522;2023-01-31T01:01:27;98867.00;;;4.10
22322;BMP180;11328;53.928;18.522;2023-01-31T01:03:57;98877.00;;;4.10
22322;BMP180;11328;53.928;18.522;2023-01-31T01:06:24;98878.00;;;4.10
22322;BMP180;11328;53.928;18.522;2023-01-31T01:08:53;98885.00;;;4.00
22322;BMP180;11328;53.928;18.522;2023-01-31T01:11:27;98873.00;;;4.00
22322;BMP180;11328;53.928;18.522;2023-01-31T01:13:57;98883.00;;;4.10
22322;BMP180;11328;53.928;18.522;2023-01-31T01:16:39;98883.00;;;4.00
22322;BMP180;11328;53.928;18.522;2023-01-31T01:19:12;98872.00;;;4.00
22322;BMP180;11328;53.928;18.522;2023-01-31T01:21:41;98885.00;;;4.10
22322;BMP180;11328;53.928;18.522;2023-01-31T01:24:16;98899.00;;;4.00
22322;BMP180;11328;53.928;18.522;2023-01-31T01:26:44;98913.00;;;4.00
22322;BMP180;11328;53.928;18.522;2023-01-31T01:29:12;98908.00;;;3.90
22322;BMP180;11328;53.928;18.522;2023-01-31T01:31:39;98913.00;;;3.90
22322;BMP180;11328;53.928;18.522;2023-01-31T01:34:13;98907.00;;;4.00
22322;BMP180;11328;53.928;18.522;2023-01-31T01:36:41;98922.00;;;3.90
22322;BMP180;11328;53.928;18.522;2023-01-31T01:39:11;98920.00;;;3.90
22322;BMP180;11328;53.928;18.522;2023-01-31T01:41:39;98923.00;;;3.90
22322;BMP180;11328;53.928;18.522;2023-01-31T01:44:52;98912.00;;;3.90
22322;BMP180;11328;53.928;18.522;2023-01-31T01:47:39;98940.00;;;3.80
22322;BMP180;11328;53.928;18.522;2023-01-31T01:50:21;98937.00;;;3.80
22322;BMP180;11328;53.928;18.522;2023-01-31T01:55:55;98944.00;;;3.80
22322;BMP180;11328;53.928;18.522;2023-01-31T02:00:53;98949.00;;;3.80
22322;BMP180;11328;53.928;18.522;2023-01-31T02:03:21;98866.00;;;3.80
22322;BMP180;11328;53.928;18.522;2023-01-31T02:05:51;98949.00;;;3.70
22322;BMP180;11328;53.928;18.522;2023-01-31T02:08:24;98950.00;;;3.70
22322;BMP180;11328;53.928;18.522;2023-01-31T02:11:22;98963.00;;;3.70
22322;BMP180;11328;53.928;18.522;2023-01-31T02:14:00;98979.00;;;3.60
22322;BMP180;11328;53.928;18.522;2023-01-31T02:16:28;98965.00;;;3.70
22322;BMP180;11328;53.928;18.522;2023-01-31T02:18:57;98970.00;;;3.70
22322;BMP180;11328;53.928;18.522;2023-01-31T02:30:37;98981.00;;;3.60
22322;BMP180;11328;53.928;18.522;2023-01-31T02:39:17;99003.00;;;3.60
22322;BMP180;11328;53.928;18.522;2023-01-31T02:50:23;99010.00;;;3.70
22322;BMP180;11328;53.928;18.522;2023-01-31T02:53:07;98913.00;;;3.80
22322;BMP180;11328;53.928;18.522;2023-01-31T02:55:57;99016.00;;;3.80
22322;BMP180;11328;53.928;18.522;2023-01-31T02:59:10;99017.00;;;3.80
22322;BMP180;11328;53.928;18.522;2023-01-31T03:01:45;99028.00;;;3.80
22322;BMP180;11328;53.928;18.522;2023-01-31T03:04:14;99012.00;;;3.80
22322;BMP180;11328;53.928;18.522;2023-01-31T03:06:56;99040.00;;;3.70
22322;BMP180;11328;53.928;18.522;2023-01-31T03:15:40;99058.00;;;3.80
22322;BMP180;11328;53.928;18.522;2023-01-31T03:18:45;99067.00;;;3.70
22322;BMP180;11328;53.928;18.522;2023-01-31T03:21:26;99062.00;;;3.60
22322;BMP180;11328;53.928;18.522;2023-01-31T03:23:57;99047.00;;;3.60
22322;BMP180;11328;53.928;18.522;2023-01-31T03:26:25;99080.00;;;3.60
22322;BMP180;11328;53.928;18.522;2023-01-31T03:28:54;99047.00;;;3.60
22322;BMP180;11328;53.928;18.522;2023-01-31T03:31:31;99076.00;;;3.60
22322;BMP180;11328;53.928;18.522;2023-01-31T03:34:05;99073.00;;;3.50
22322;BMP180;11328;53.928;18.522;2023-01-31T03:37:11;99068.00;;;3.50
22322;BMP180;11328;53.928;18.522;2023-01-31T03:40:03;99072.00;;;3.40
22322;BMP180;11328;53.928;18.522;2023-01-31T03:42:56;99081.00;;;3.40
22322;BMP180;11328;53.928;18.522;2023-01-31T03:45:35;99078.00;;;3.40
22322;BMP180;11328;53.928;18.522;2023-01-31T03:48:07;99100.00;;;3.40
22322;BMP180;11328;53.928;18.522;2023-01-31T03:50:55;99036.00;;;3.40
22322;BMP180;11328;53.928;18.522;2023-01-31T03:53:42;99106.00;;;3.40
22322;BMP180;11328;53.928;18.522;2023-01-31T03:56:43;99100.00;;;3.40
22322;BMP180;11328;53.928;18.522;2023-01-31T03:59:20;99104.00;;;3.40
22322;BMP180;11328;53.928;18.522;2023-01-31T04:01:52;99114.00;;;3.50
22322;BMP180;11328;53.928;18.522;2023-01-31T04:04:35;99105.00;;;3.50
22322;BMP180;11328;53.928;18.522;2023-01-31T04:07:04;99106.00;;;3.50
22322;BMP180;11328;53.928;18.522;2023-01-31T04:09:33;99127.00;;;3.50
22322;BMP180;11328;53.928;18.522;2023-01-31T04:12:01;99128.00;;;3.50
22322;BMP180;11328;53.928;18.522;2023-01-31T04:14:28;99124.00;;;3.40
22322;BMP180;11328;53.928;18.522;2023-01-31T04:16:56;99138.00;;;3.40
22322;BMP180;11328;53.928;18.522;2023-01-31T04:19:23;99143.00;;;3.40
22322;BMP180;11328;53.928;18.522;2023-01-31T04:21:50;99153.00;;;3.40
22322;BMP180;11328;53.928;18.522;2023-01-31T04:24:17;99143.00;;;3.40
22322;BMP180;11328;53.928;18.522;2023-01-31T04:26:44;99134.00;;;3.30
22322;BMP180;11328;53.928;18.522;2023-01-31T04:29:11;99127.00;;;3.20
22322;BMP180;11328;53.928;18.522;2023-01-31T04:31:38;99144.00;;;3.30
22322;BMP180;11328;53.928;18.522;2023-01-31T04:34:07;99154.00;;;3.20
22322;BMP180;11328;53.928;18.522;2023-01-31T04:36:35;99161.00;;;3.30
22322;BMP180;11328;53.928;18.522;2023-01-31T04:39:02;99158.00;;;3.20
22322;BMP180;11328;53.928;18.522;2023-01-31T04:41:29;99167.00;;;3.20
22322;BMP180;11328;53.928;18.522;2023-01-31T04:43:56;99170.00;;;3.20
22322;BMP180;11328;53.928;18.522;2023-01-31T04:46:23;99182.00;;;3.30
22322;BMP180;11328;53.928;18.522;2023-01-31T04:48:50;99184.00;;;3.30
22322;BMP180;11328;53.928;18.522;2023-01-31T04:51:18;99183.00;;;3.40
22322;BMP180;11328;53.928;18.522;2023-01-31T04:53:45;99190.00;;;3.30
22322;BMP180;11328;53.928;18.522;2023-01-31T04:56:12;99178.00;;;3.30
22322;BMP180;11328;53.928;18.522;2023-01-31T04:58:39;99181.00;;;3.20
22322;BMP180;11328;53.928;18.522;2023-01-31T05:01:07;99198.00;;;3.30
22322;BMP180;11328;53.928;18.522;2023-01-31T05:03:35;99200.00;;;3.30
22322;BMP180;11328;53.928;18.522;2023-01-31T05:06:02;99187.00;;;3.20
22322;BMP180;11328;53.928;18.522;2023-01-31T05:08:29;99200.00;;;3.20
22322;BMP180;11328;53.928;18.522;2023-01-31T05:10:59;99222.00;;;3.30
22322;BMP180;11328;53.928;18.522;2023-01-31T05:13:30;99202.00;;;3.30
22322;BMP180;11328;53.928;18.522;2023-01-31T05:15:58;99206.00;;;3.30
22322;BMP180;11328;53.928;18.522;2023-01-31T05:18:26;99218.00;;;3.30
22322;BMP180;11328;53.928;18.522;2023-01-31T05:20:53;99223.00;;;3.30
22322;BMP180;11328;53.928;18.522;2023-01-31T05:23:20;99227.00;;;3.30
22322;BMP180;11328;53.928;18.522;2023-01-31T05:25:49;99228.00;;;3.30
22322;BMP180;11328;53.928;18.522;2023-01-31T05:28:16;99230.00;;;3.30
22322;BMP180;11328;53.928;18.522;2023-01-31T05:30:44;99238.00;;;3.20
22322;BMP180;11328;53.928;18.522;2023-01-31T05:33:12;99227.00;;;3.20
22322;BMP180;11328;53.928;18.522;2023-01-31T05:35:40;99244.00;;;3.20
22322;BMP180;11328;53.928;18.522;2023-01-31T05:38:08;99250.00;;;3.30
22322;BMP180;11328;53.928;18.522;2023-01-31T05:40:36;99186.00;;;3.10
22322;BMP180;11328;53.928;18.522;2023-01-31T05:43:03;99265.00;;;3.30
22322;BMP180;11328;53.928;18.522;2023-01-31T05:45:31;99255.00;;;3.40
22322;BMP180;11328;53.928;18.522;2023-01-31T05:47:58;99262.00;;;3.40
22322;BMP180;11328;53.928;18.522;2023-01-31T05:50:25;99255.00;;;3.30
22322;BMP180;11328;53.928;18.522;2023-01-31T05:52:58;99233.00;;;3.40
22322;BMP180;11328;53.928;18.522;2023-01-31T05:55:31;99267.00;;;3.40
22322;BMP180;11328;53.928;18.522;2023-01-31T05:57:59;99270.00;;;3.40
22322;BMP180;11328;53.928;18.522;2023-01-31T06:00:27;99274.00;;;3.40
22322;BMP180;11328;53.928;18.522;2023-01-31T06:02:58;99288.00;;;3.40
22322;BMP180;11328;53.928;18.522;2023-01-31T06:05:26;99284.00;;;3.40
22322;BMP180;11328;53.928;18.522;2023-01-31T06:07:53;99291.00;;;3.40
22322;BMP180;11328;53.928;18.522;2023-01-31T06:10:21;99306.00;;;3.40
22322;BMP180;11328;53.928;18.522;2023-01-31T06:12:48;99306.00;;;3.50
22322;BMP180;11328;53.928;18.522;2023-01-31T06:15:16;99318.00;;;3.50
22322;BMP180;11328;53.928;18.522;2023-01-31T06:17:44;99247.00;;;3.50
22322;BMP180;11328;53.928;18.522;2023-01-31T06:20:11;99318.00;;;3.50
22322;BMP180;11328;53.928;18.522;2023-01-31T06:22:40;99318.00;;;3.40
22322;BMP180;11328;53.928;18.522;2023-01-31T06:25:08;99320.00;;;3.50
22322;BMP180;11328;53.928;18.522;2023-01-31T06:27:35;99311.00;;;2.70
22322;BMP180;11328;53.928;18.522;2023-01-31T06:30:03;99334.00;;;3.60
22322;BMP180;11328;53.928;18.522;2023-01-31T06:32:31;99352.00;;;3.60
22322;BMP180;11328;53.928;18.522;2023-01-31T06:34:59;99360.00;;;3.60
22322;BMP180;11328;53.928;18.522;2023-01-31T06:37:26;99367.00;;;3.70
22322;BMP180;11328;53.928;18.522;2023-01-31T06:39:53;99365.00;;;2.70
22322;BMP180;11328;53.928;18.522;2023-01-31T06:42:20;99356.00;;;3.70
22322;BMP180;11328;53.928;18.522;2023-01-31T06:44:47;99362.00;;;3.60
22322;BMP180;11328;53.928;18.522;2023-01-31T06:47:14;99369.00;;;3.60
22322;BMP180;11328;53.928;18.522;2023-01-31T06:49:41;99373.00;;;3.50
22322;BMP180;11328;53.928;18.522;2023-01-31T06:52:09;99368.00;;;3.60
22322;BMP180;11328;53.928;18.522;2023-01-31T06:54:38;99389.00;;;3.60
22322;BMP180;11328;53.928;18.522;2023-01-31T06:57:05;99394.00;;;3.50
22322;BMP180;11328;53.928;18.522;2023-01-31T06:59:32;99406.00;;;3.50
22322;BMP180;11328;53.928;18.522;2023-01-31T07:01:59;99405.00;;;3.40
22322;BMP180;11328;53.928;18.522;2023-01-31T07:04:27;99398.00;;;3.50
22322;BMP180;11328;53.928;18.522;2023-01-31T07:06:54;99410.00;;;3.40
22322;BMP180;11328;53.928;18.522;2023-01-31T07:09:22;99406.00;;;3.40
22322;BMP180;11328;53.928;18.522;2023-01-31T07:11:49;99411.00;;;3.40
22322;BMP180;11328;53.928;18.522;2023-01-31T07:14:16;99401.00;;;3.30
22322;BMP180;11328;53.928;18.522;2023-01-31T07:16:43;99412.00;;;3.30
22322;BMP180;11328;53.928;18.522;2023-01-31T07:19:12;99414.00;;;3.30
22322;BMP180;11328;53.928;18.522;2023-01-31T07:21:39;99410.00;;;3.40
22322;BMP180;11328;53.928;18.522;2023-01-31T07:24:07;99401.00;;;3.40
22322;BMP180;11328;53.928;18.522;2023-01-31T07:26:34;99413.00;;;3.30
22322;BMP180;11328;53.928;18.522;2023-01-31T07:29:01;99405.00;;;3.30
22322;BMP180;11328;53.928;18.522;2023-01-31T07:31:29;99414.00;;;3.40
22322;BMP180;11328;53.928;18.522;2023-01-31T07:33:56;99405.00;;;3.50
22322;BMP180;11328;53.928;18.522;2023-01-31T07:36:23;99412.00;;;3.50
22322;BMP180;11328;53.928;18.522;2023-01-31T07:38:54;99420.00;;;3.60
22322;BMP180;11328;53.928;18.522;2023-01-31T07:41:23;99415.00;;;3.50
22322;BMP180;11328;53.928;18.522;2023-01-31T07:43:51;99415.00;;;3.60
22322;BMP180;11328;53.928;18.522;2023-01-31T07:46:19;99428.00;;;3.60
22322;BMP180;11328;53.928;18.522;2023-01-31T07:48:46;99429.00;;;3.70
22322;BMP180;11328;53.928;18.522;2023-01-31T07:51:14;99434.00;;;3.70
22322;BMP180;11328;53.928;18.522;2023-01-31T07:53:41;99435.00;;;3.80
22322;BMP180;11328;53.928;18.522;2023-01-31T07:56:15;99436.00;;;3.80
22322;BMP180;11328;53.928;18.522;2023-01-31T07:58:44;99429.00;;;3.90
22322;BMP180;11328;53.928;18.522;2023-01-31T08:01:26;99375.00;;;4.10
22322;BMP180;11328;53.928;18.522;2023-01-31T08:04:16;99442.00;;;4.10
22322;BMP180;11328;53.928;18.522;2023-01-31T08:06:53;99446.00;;;4.30
22322;BMP180;11328;53.928;18.522;2023-01-31T08:09:22;99450.00;;;4.30
22322;BMP180;11328;53.928;18.522;2023-01-31T08:11:50;99467.00;;;4.30
22322;BMP180;11328;53.928;18.522;2023-01-31T08:14:17;99452.00;;;4.30
22322;BMP180;11328;53.928;18.522;2023-01-31T08:16:50;99451.00;;;4.30
22322;BMP180;11328;53.928;18.522;2023-01-31T08:19:17;99466.00;;;4.40
22322;BMP180;11328;53.928;18.522;2023-01-31T08:21:44;99458.00;;;4.40
22322;BMP180;11328;53.928;18.522;2023-01-31T08:24:12;99395.00;;;4.40
22322;BMP180;11328;53.928;18.522;2023-01-31T08:26:41;99454.00;;;4.40
22322;BMP180;11328;53.928;18.522;2023-01-31T08:29:10;99472.00;;;4.50
22322;BMP180;11328;53.928;18.522;2023-01-31T08:31:39;99462.00;;;4.40
22322;BMP180;11328;53.928;18.522;2023-01-31T08:34:07;99435.00;;;4.50
22322;BMP180;11328;53.928;18.522;2023-01-31T08:36:34;99463.00;;;4.50
22322;BMP180;11328;53.928;18.522;2023-01-31T08:39:03;99470.00;;;4.60
22322;BMP180;11328;53.928;18.522;2023-01-31T08:41:33;99471.00;;;4.60
22322;BMP180;11328;53.928;18.522;2023-01-31T08:44:00;99474.00;;;4.50
22322;BMP180;11328;53.928;18.522;2023-01-31T08:46:34;99486.00;;;4.50
22322;BMP180;11328;53.928;18.522;2023-01-31T08:49:05;99487.00;;;4.50
22322;BMP180;11328;53.928;18.522;2023-01-31T08:51:32;99476.00;;;4.50
22322;BMP180;11328;53.928;18.522;2023-01-31T08:53:59;99482.00;;;4.50
22322;BMP180;11328;53.928;18.522;2023-01-31T08:56:27;99474.00;;;4.70
22322;BMP180;11328;53.928;18.522;2023-01-31T08:58:56;99455.00;;;4.90
22322;BMP180;11328;53.928;18.522;2023-01-31T09:01:24;99471.00;;;5.00
22322;BMP180;11328;53.928;18.522;2023-01-31T09:03:51;99490.00;;;5.20
22322;BMP180;11328;53.928;18.522;2023-01-31T09:06:25;99491.00;;;5.20
22322;BMP180;11328;53.928;18.522;2023-01-31T09:08:56;99486.00;;;5.10
22322;BMP180;11328;53.928;18.522;2023-01-31T09:11:27;99489.00;;;5.10
22322;BMP180;11328;53.928;18.522;2023-01-31T09:13:56;99491.00;;;5.20
22322;BMP180;11328;53.928;18.522;2023-01-31T09:16:24;99486.00;;;5.20
22322;BMP180;11328;53.928;18.522;2023-01-31T09:18:52;99499.00;;;5.10
22322;BMP180;11328;53.928;18.522;2023-01-31T09:21:20;99510.00;;;5.00
22322;BMP180;11328;53.928;18.522;2023-01-31T09:23:55;99520.00;;;5.00
22322;BMP180;11328;53.928;18.522;2023-01-31T09:26:23;99518.00;;;5.00
22322;BMP180;11328;53.928;18.522;2023-01-31T09:28:51;99415.00;;;5.10
22322;BMP180;11328;53.928;18.522;2023-01-31T09:31:19;99497.00;;;5.10
22322;BMP180;11328;53.928;18.522;2023-01-31T09:33:47;99530.00;;;5.10
22322;BMP180;11328;53.928;18.522;2023-01-31T09:36:19;99525.00;;;5.20
22322;BMP180;11328;53.928;18.522;2023-01-31T09:38:47;99538.00;;;5.30
22322;BMP180;11328;53.928;18.522;2023-01-31T09:41:43;99540.00;;;5.20
22322;BMP180;11328;53.928;18.522;2023-01-31T09:44:42;99537.00;;;5.10
22322;BMP180;11328;53.928;18.522;2023-01-31T09:49:49;99529.00;;;4.90
22322;BMP180;11328;53.928;18.522;2023-01-31T09:52:17;99506.00;;;4.90
22322;BMP180;11328;53.928;18.522;2023-01-31T09:54:44;99530.00;;;5.10
22322;BMP180;11328;53.928;18.522;2023-01-31T09:57:37;99533.00;;;5.00
22322;BMP180;11328;53.928;18.522;2023-01-31T10:00:29;99528.00;;;5.00
22322;BMP180;11328;53.928;18.522;2023-01-31T10:03:47;99527.00;;;5.10
22322;BMP180;11328;53.928;18.522;2023-01-31T10:06:23;99539.00;;;5.00
22322;BMP180;11328;53.928;18.522;2023-01-31T10:12:16;99527.00;;;5.20
22322;BMP180;11328;53.928;18.522;2023-01-31T10:14:49;99518.00;;;5.20
22322;BMP180;11328;53.928;18.522;2023-01-31T10:17:35;99512.00;;;5.30
22322;BMP180;11328;53.928;18.522;2023-01-31T10:20:20;99517.00;;;5.20
22322;BMP180;11328;53.928;18.522;2023-01-31T10:31:43;99522.00;;;5.20
22322;BMP180;11328;53.928;18.522;2023-01-31T10:34:38;99517.00;;;5.20
22322;BMP180;11328;53.928;18.522;2023-01-31T10:37:29;99520.00;;;5.20
22322;BMP180;11328;53.928;18.522;2023-01-31T10:40:11;99526.00;;;5.30
22322;BMP180;11328;53.928;18.522;2023-01-31T10:42:44;99511.00;;;5.20
22322;BMP180;11328;53.928;18.522;2023-01-31T10:45:26;99520.00;;;5.20
22322;BMP180;11328;53.928;18.522;2023-01-31T10:48:21;99506.00;;;5.20
22322;BMP180;11328;53.928;18.522;2023-01-31T10:56:24;99501.00;;;5.50
22322;BMP180;11328;53.928;18.522;2023-01-31T10:58:54;99490.00;;;5.30
22322;BMP180;11328;53.928;18.522;2023-01-31T11:01:23;99476.00;;;5.30
22322;BMP180;11328;53.928;18.522;2023-01-31T11:03:53;99486.00;;;5.20
22322;BMP180;11328;53.928;18.522;2023-01-31T11:06:23;99308.00;;;5.30
22322;BMP180;11328;53.928;18.522;2023-01-31T11:09:00;99474.00;;;5.30
22322;BMP180;11328;53.928;18.522;2023-01-31T11:11:28;99487.00;;;5.40
22322;BMP180;11328;53.928;18.522;2023-01-31T11:14:17;99466.00;;;5.30
22322;BMP180;11328;53.928;18.522;2023-01-31T11:16:44;99473.00;;;5.20
22322;BMP180;11328;53.928;18.522;2023-01-31T11:22:31;99469.00;;;5.30
22322;BMP180;11328;53.928;18.522;2023-01-31T11:25:02;99469.00;;;5.40
22322;BMP180;11328;53.928;18.522;2023-01-31T11:27:39;99453.00;;;5.40
22322;BMP180;11328;53.928;18.522;2023-01-31T11:30:34;99456.00;;;5.50
22322;BMP180;11328;53.928;18.522;2023-01-31T11:33:03;99453.00;;;5.40
22322;BMP180;11328;53.928;18.522;2023-01-31T11:35:34;99435.00;;;5.30
22322;BMP180;11328;53.928;18.522;2023-01-31T11:38:07;99444.00;;;5.40
22322;BMP180;11328;53.928;18.522;2023-01-31T11:40:43;99440.00;;;5.30
22322;BMP180;11328;53.928;18.522;2023-01-31T11:45:46;99433.00;;;5.30
22322;BMP180;11328;53.928;18.522;2023-01-31T11:51:00;99441.00;;;4.10
22322;BMP180;11328;53.928;18.522;2023-01-31T11:53:47;99445.00;;;5.20
22322;BMP180;11328;53.928;18.522;2023-01-31T11:56:34;99444.00;;;5.00
22322;BMP180;11328;53.928;18.522;2023-01-31T11:59:05;99442.00;;;5.00
22322;BMP180;11328;53.928;18.522;2023-01-31T12:01:48;99432.00;;;5.00
22322;BMP180;11328;53.928;18.522;2023-01-31T12:04:30;99440.00;;;5.10
22322;BMP180;11328;53.928;18.522;2023-01-31T12:07:08;99411.00;;;5.10
22322;BMP180;11328;53.928;18.522;2023-01-31T12:09:46;99426.00;;;5.20
22322;BMP180;11328;53.928;18.522;2023-01-31T12:14:59;99426.00;;;5.10
22322;BMP180;11328;53.928;18.522;2023-01-31T12:17:30;99423.00;;;5.20
22322;BMP180;11328;53.928;18.522;2023-01-31T12:20:13;99423.00;;;5.20
22322;BMP180;11328;53.928;18.522;2023-01-31T12:26:09;99398.00;;;5.40
22322;BMP180;11328;53.928;18.522;2023-01-31T12:47:51;99380.00;;;5.30
22322;BMP180;11328;53.928;18.522;2023-01-31T12:59:28;99377.00;;;5.40
22322;BMP180;11328;53.928;18.522;2023-01-31T13:04:55;99378.00;;;5.30
22322;BMP180;11328;53.928;18.522;2023-01-31T13:08:19;99378.00;;;5.30
22322;BMP180;11328;53.928;18.522;2023-01-31T13:10:35;99359.00;;;5.10
22322;BMP180;11328;53.928;18.522;2023-01-31T13:13:11;99367.00;;;5.10
22322;BMP180;11328;53.928;18.522;2023-01-31T13:15:58;99367.00;;;5.10
22322;BMP180;11328;53.928;18.522;2023-01-31T13:18:32;99365.00;;;5.20
22322;BMP180;11328;53.928;18.522;2023-01-31T13:21:13;99363.00;;;5.20
22322;BMP180;11328;53.928;18.522;2023-01-31T13:23:50;99363.00;;;4.80
22322;BMP180;11328;53.928;18.522;2023-01-31T13:26:28;99357.00;;;5.10
22322;BMP180;11328;53.928;18.522;2023-01-31T13:31:49;99358.00;;;5.00
22322;BMP180;11328;53.928;18.522;2023-01-31T13:37:04;99345.00;;;5.10
22322;BMP180;11328;53.928;18.522;2023-01-31T13:39:39;99339.00;;;5.00
22322;BMP180;11328;53.928;18.522;2023-01-31T13:42:14;99344.00;;;5.00
22322;BMP180;11328;53.928;18.522;2023-01-31T13:44:42;99337.00;;;5.00
22322;BMP180;11328;53.928;18.522;2023-01-31T13:47:16;99329.00;;;5.10
22322;BMP180;11328;53.928;18.522;2023-01-31T13:52:38;99326.00;;;5.00
22322;BMP180;11328;53.928;18.522;2023-01-31T13:55:09;99334.00;;;5.20
22322;BMP180;11328;53.928;18.522;2023-01-31T13:57:52;99328.00;;;5.20
22322;BMP180;11328;53.928;18.522;2023-01-31T14:00:40;99325.00;;;5.20
22322;BMP180;11328;53.928;18.522;2023-01-31T14:03:19;99324.00;;;5.20
22322;BMP180;11328;53.928;18.522;2023-01-31T14:08:38;99312.00;;;5.30
22322;BMP180;11328;53.928;18.522;2023-01-31T14:14:17;99314.00;;;5.30
22322;BMP180;11328;53.928;18.522;2023-01-31T14:16:47;99299.00;;;5.20
22322;BMP180;11328;53.928;18.522;2023-01-31T14:22:03;99298.00;;;5.10
22322;BMP180;11328;53.928;18.522;2023-01-31T14:27:42;99304.00;;;4.90
22322;BMP180;11328;53.928;18.522;2023-01-31T14:30:44;99287.00;;;4.90
22322;BMP180;11328;53.928;18.522;2023-01-31T14:33:18;99292.00;;;5.00
22322;BMP180;11328;53.928;18.522;2023-01-31T14:36:22;99286.00;;;4.90
22322;BMP180;11328;53.928;18.522;2023-01-31T14:39:22;99295.00;;;4.90
22322;BMP180;11328;53.928;18.522;2023-01-31T14:42:14;99281.00;;;4.80
22322;BMP180;11328;53.928;18.522;2023-01-31T14:59:43;99272.00;;;4.70
22322;BMP180;11328;53.928;18.522;2023-01-31T15:07:33;99250.00;;;4.60
22322;BMP180;11328;53.928;18.522;2023-01-31T15:10:01;99249.00;;;4.70
22322;BMP180;11328;53.928;18.522;2023-01-31T15:12:54;99269.00;;;4.70
22322;BMP180;11328;53.928;18.522;2023-01-31T15:15:36;99249.00;;;4.60
22322;BMP180;11328;53.928;18.522;2023-01-31T15:18:19;99262.00;;;4.50
22322;BMP180;11328;53.928;18.522;2023-01-31T15:20:59;99251.00;;;4.60
22322;BMP180;11328;53.928;18.522;2023-01-31T15:23:30;99256.00;;;4.30
22322;BMP180;11328;53.928;18.522;2023-01-31T15:26:00;99257.00;;;4.50
22322;BMP180;11328;53.928;18.522;2023-01-31T15:28:35;99256.00;;;4.50
22322;BMP180;11328;53.928;18.522;2023-01-31T15:31:27;99255.00;;;4.50
22322;BMP180;11328;53.928;18.522;2023-01-31T15:34:02;99159.00;;;4.50
22322;BMP180;11328;53.928;18.522;2023-01-31T15:37:25;99225.00;;;4.50
22322;BMP180;11328;53.928;18.522;2023-01-31T15:42:44;99219.00;;;4.70
22322;BMP180;11328;53.928;18.522;2023-01-31T15:45:25;99232.00;;;4.70
22322;BMP180;11328;53.928;18.522;2023-01-31T15:48:07;99201.00;;;4.50
22322;BMP180;11328;53.928;18.522;2023-01-31T15:50:47;99218.00;;;4.50
22322;BMP180;11328;53.928;18.522;2023-01-31T15:53:16;99220.00;;;4.50
22322;BMP180;11328;53.928;18.522;2023-01-31T15:55:47;99210.00;;;4.50
22322;BMP180;11328;53.928;18.522;2023-01-31T15:58:21;99211.00;;;4.40
22322;BMP180;11328;53.928;18.522;2023-01-31T16:00:52;99217.00;;;4.40
22322;BMP180;11328;53.928;18.522;2023-01-31T16:03:25;99207.00;;;4.40
22322;BMP180;11328;53.928;18.522;2023-01-31T16:05:56;99213.00;;;4.30
22322;BMP180;11328;53.928;18.522;2023-01-31T16:08:35;99210.00;;;4.40
22322;BMP180;11328;53.928;18.522;2023-01-31T16:11:08;99201.00;;;4.40
22322;BMP180;11328;53.928;18.522;2023-01-31T16:13:38;99189.00;;;4.40
22322;BMP180;11328;53.928;18.522;2023-01-31T16:16:08;99180.00;;;4.40
22322;BMP180;11328;53.928;18.522;2023-01-31T16:18:37;99185.00;;;4.30
22322;BMP180;11328;53.928;18.522;2023-01-31T16:21:33;99189.00;;;4.20
22322;BMP180;11328;53.928;18.522;2023-01-31T16:27:07;99169.00;;;4.20
22322;BMP180;11328;53.928;18.522;2023-01-31T16:29:58;99154.00;;;4.20
22322;BMP180;11328;53.928;18.522;2023-01-31T16:32:36;99155.00;;;4.20
22322;BMP180;11328;53.928;18.522;2023-01-31T16:35:19;99132.00;;;4.30
22322;BMP180;11328;53.928;18.522;2023-01-31T16:38:06;99127.00;;;4.30
22322;BMP180;11328;53.928;18.522;2023-01-31T16:40:52;99109.00;;;4.20
22322;BMP180;11328;53.928;18.522;2023-01-31T16:43:24;99115.00;;;4.20
22322;BMP180;11328;53.928;18.522;2023-01-31T16:45:59;99110.00;;;4.20
22322;BMP180;11328;53.928;18.522;2023-01-31T16:48:29;99112.00;;;4.20
22322;BMP180;11328;53.928;18.522;2023-01-31T16:54:24;99103.00;;;4.20
22322;BMP180;11328;53.928;18.522;2023-01-31T17:02:24;99073.00;;;4.40
22322;BMP180;11328;53.928;18.522;2023-01-31T17:04:56;99054.00;;;4.30
22322;BMP180;11328;53.928;18.522;2023-01-31T17:07:31;99062.00;;;4.30
22322;BMP180;11328;53.928;18.522;2023-01-31T17:10:06;99065.00;;;4.30
22322;BMP180;11328;53.928;18.522;2023-01-31T17:12:38;99060.00;;;4.30
22322;BMP180;11328;53.928;18.522;2023-01-31T17:15:17;99043.00;;;4.40
22322;BMP180;11328;53.928;18.522;2023-01-31T17:17:46;99040.00;;;4.40
22322;BMP180;11328;53.928;18.522;2023-01-31T17:20:16;99032.00;;;4.40
22322;BMP180;11328;53.928;18.522;2023-01-31T17:22:51;99021.00;;;4.30